createdAt,value
2023-05-20T00:02:10.402Z,14.63
2023-05-20T00:04:38.669Z,14.60
2023-05-20T00:07:09.427Z,14.33
2023-05-20T00:09:37.800Z,14.33
2023-05-20T00:12:06.890Z,14.44
2023-05-20T00:14:35.599Z,14.39
2023-05-20T00:17:04.121Z,14.33
2023-05-20T00:19:32.373Z,14.42
2023-05-20T00:22:00.561Z,14.42
2023-05-20T00:24:30.338Z,14.42
2023-05-20T00:26:58.729Z,14.42
2023-05-20T00:29:28.966Z,14.38
2023-05-20T00:31:57.361Z,14.56
2023-05-20T00:34:26.115Z,14.60
2023-05-20T00:36:55.795Z,14.55
2023-05-20T00:39:24.263Z,14.44
2023-05-20T00:41:54.132Z,14.65
2023-05-20T00:44:25.125Z,14.51
2023-05-20T00:46:54.705Z,14.57
2023-05-20T00:49:23.955Z,14.52
2023-05-20T00:51:52.566Z,14.60
2023-05-20T00:54:21.216Z,14.72
2023-05-20T00:56:49.877Z,14.63
2023-05-20T00:59:20.326Z,14.62
2023-05-20T01:01:49.575Z,14.35
2023-05-20T01:04:17.970Z,14.43
2023-05-20T01:06:48.129Z,14.31
2023-05-20T01:09:16.704Z,14.21
2023-05-20T01:11:53.169Z,14.31
2023-05-20T01:14:25.267Z,14.42
2023-05-20T01:16:55.542Z,14.36
2023-05-20T01:19:34.272Z,14.45
2023-05-20T01:22:07.350Z,14.18
2023-05-20T01:24:37.902Z,14.16
2023-05-20T01:27:10.703Z,14.22
2023-05-20T01:29:39.201Z,14.17
2023-05-20T01:32:12.829Z,14.29
2023-05-20T01:34:44.132Z,14.18
2023-05-20T01:37:14.218Z,14.01
2023-05-20T01:39:44.726Z,13.89
2023-05-20T01:42:14.292Z,14.04
2023-05-20T01:44:42.681Z,14.22
2023-05-20T01:47:11.066Z,14.39
2023-05-20T01:49:39.554Z,14.07
2023-05-20T01:52:07.998Z,14.07
2023-05-20T01:54:36.586Z,14.14
2023-05-20T01:57:07.302Z,14.09
2023-05-20T01:59:36.537Z,14.13
2023-05-20T02:02:06.614Z,14.21
2023-05-20T02:04:35.105Z,14.08
2023-05-20T02:07:03.396Z,14.05
2023-05-20T02:09:31.942Z,14.22
2023-05-20T02:12:00.369Z,14.24
2023-05-20T02:14:30.646Z,14.18
2023-05-20T02:17:00.350Z,14.33
2023-05-20T02:19:28.877Z,14.30
2023-05-20T02:21:57.645Z,14.14
2023-05-20T02:24:26.306Z,14.09
2023-05-20T02:26:56.068Z,13.96
2023-05-20T02:29:24.448Z,13.98
2023-05-20T02:31:54.373Z,13.96
2023-05-20T02:34:22.858Z,13.95
2023-05-20T02:36:52.079Z,13.88
2023-05-20T02:39:20.466Z,13.85
2023-05-20T02:41:48.879Z,13.80
2023-05-20T02:44:17.161Z,13.70
2023-05-20T02:46:45.589Z,13.82
2023-05-20T02:49:15.522Z,13.80
2023-05-20T02:51:43.992Z,13.84
2023-05-20T02:54:12.421Z,13.74
2023-05-20T02:56:40.992Z,13.77
2023-05-20T02:59:11.326Z,13.91
2023-05-20T03:01:40.781Z,13.90
2023-05-20T03:04:10.417Z,13.74
2023-05-20T03:06:44.866Z,13.66
2023-05-20T03:09:14.357Z,13.60
2023-05-20T03:11:42.968Z,13.58
2023-05-20T03:14:11.424Z,13.64
2023-05-20T03:16:41.969Z,13.51
2023-05-20T03:19:10.468Z,13.68
2023-05-20T03:21:40.678Z,13.81
2023-05-20T03:24:09.106Z,13.78
2023-05-20T03:26:38.766Z,13.75
2023-05-20T03:29:07.190Z,14.00
2023-05-20T03:31:35.790Z,13.94
2023-05-20T03:34:04.161Z,14.07
2023-05-20T03:36:35.034Z,13.92
2023-05-20T03:39:05.231Z,13.82
2023-05-20T03:41:33.952Z,13.87
2023-05-20T03:44:02.848Z,13.87
2023-05-20T03:46:32.887Z,13.74
2023-05-20T03:49:02.477Z,13.77
2023-05-20T03:51:30.900Z,13.85
2023-05-20T03:53:59.381Z,13.92
2023-05-20T03:56:29.724Z,13.95
2023-05-20T03:58:58.488Z,13.99
2023-05-20T04:01:27.442Z,14.10
2023-05-20T04:03:56.003Z,13.80
2023-05-20T04:06:24.855Z,13.68
2023-05-20T04:08:53.693Z,13.63
2023-05-20T04:11:22.021Z,13.46
2023-05-20T04:13:51.925Z,13.52
2023-05-20T04:16:20.390Z,13.55
2023-05-20T04:18:49.236Z,13.59
2023-05-20T04:21:19.068Z,13.66
2023-05-20T04:23:47.614Z,13.57
2023-05-20T04:26:17.289Z,13.56
2023-05-20T04:28:48.956Z,13.62
2023-05-20T04:31:19.205Z,13.56
2023-05-20T04:33:48.451Z,13.64
2023-05-20T04:36:17.585Z,13.78
2023-05-20T04:38:46.276Z,13.67
2023-05-20T04:41:16.264Z,13.52
2023-05-20T04:43:46.048Z,13.66
2023-05-20T04:46:14.578Z,13.66
2023-05-20T04:48:44.951Z,13.68
2023-05-20T04:51:15.703Z,13.75
2023-05-20T04:53:46.278Z,13.59
2023-05-20T04:56:15.683Z,13.84
2023-05-20T04:58:44.354Z,13.65
2023-05-20T05:01:12.970Z,13.71
2023-05-20T05:03:44.262Z,13.61
2023-05-20T05:06:14.437Z,13.66
2023-05-20T05:08:43.124Z,13.61
2023-05-20T05:11:11.567Z,13.68
2023-05-20T05:13:40.952Z,13.58
2023-05-20T05:16:09.768Z,13.58
2023-05-20T05:18:38.166Z,13.54
2023-05-20T05:21:07.657Z,13.68
2023-05-20T05:23:37.126Z,13.59
2023-05-20T05:26:05.597Z,13.59
2023-05-20T05:28:33.784Z,13.67
2023-05-20T05:31:02.408Z,13.60
2023-05-20T05:33:30.809Z,13.68
2023-05-20T05:35:59.515Z,13.78
2023-05-20T05:38:28.898Z,13.66
2023-05-20T05:40:58.769Z,13.60
2023-05-20T05:43:26.954Z,13.70
2023-05-20T05:45:55.492Z,13.64
2023-05-20T05:48:24.067Z,13.70
2023-05-20T05:50:52.614Z,13.75
2023-05-20T05:53:20.820Z,13.69
2023-05-20T05:55:49.049Z,13.65
2023-05-20T05:58:19.121Z,13.72
2023-05-20T06:00:47.252Z,13.63
2023-05-20T06:03:15.878Z,13.58
2023-05-20T06:05:47.581Z,13.69
2023-05-20T06:08:15.939Z,13.68
2023-05-20T06:10:49.222Z,13.65
2023-05-20T06:13:19.486Z,13.52
2023-05-20T06:15:47.513Z,13.57
2023-05-20T06:18:16.269Z,13.56
2023-05-20T06:20:44.402Z,13.58
2023-05-20T06:23:12.958Z,13.59
2023-05-20T06:25:41.230Z,13.75
2023-05-20T06:28:09.447Z,13.83
2023-05-20T06:30:39.067Z,13.84
2023-05-20T06:33:07.355Z,13.90
2023-05-20T06:35:36.394Z,14.09
2023-05-20T06:38:04.933Z,14.06
2023-05-20T06:40:33.530Z,14.12
2023-05-20T06:43:01.830Z,14.20
2023-05-20T06:45:29.969Z,14.20
2023-05-20T06:48:00.670Z,14.39
2023-05-20T06:50:29.680Z,14.41
2023-05-20T06:52:58.276Z,14.44
2023-05-20T06:55:29.065Z,14.42
2023-05-20T06:57:57.192Z,14.36
2023-05-20T07:00:25.545Z,14.31
2023-05-20T07:02:53.810Z,14.52
2023-05-20T07:05:24.624Z,14.52
2023-05-20T07:07:53.051Z,14.65
2023-05-20T07:10:21.456Z,14.79
2023-05-20T07:12:50.998Z,14.69
2023-05-20T07:15:20.334Z,14.80
2023-05-20T07:17:48.805Z,14.71
2023-05-20T07:20:17.373Z,14.81
2023-05-20T07:22:48.919Z,14.88
2023-05-20T07:25:17.675Z,15.15
2023-05-20T07:27:46.429Z,14.92
2023-05-20T07:30:15.278Z,15.01
2023-05-20T07:32:43.502Z,14.99
2023-05-20T07:35:11.772Z,15.21
2023-05-20T07:37:40.243Z,15.23
2023-05-20T07:40:11.598Z,15.33
2023-05-20T07:42:39.804Z,15.56
2023-05-20T07:45:09.425Z,15.55
2023-05-20T07:47:37.947Z,15.85
2023-05-20T07:50:07.019Z,15.66
2023-05-20T07:52:44.186Z,15.59
2023-05-20T07:55:24.701Z,15.67
2023-05-20T07:57:53.145Z,15.68
2023-05-20T08:00:22.146Z,15.64
2023-05-20T08:02:50.838Z,15.65
2023-05-20T08:05:19.233Z,15.52
2023-05-20T08:07:47.713Z,15.61
2023-05-20T08:10:16.415Z,15.78
2023-05-20T08:12:46.226Z,15.60
2023-05-20T08:15:14.751Z,15.71
2023-05-20T08:17:43.847Z,15.57
2023-05-20T08:20:14.703Z,15.72
2023-05-20T08:22:43.241Z,15.88
2023-05-20T08:25:11.888Z,15.91
2023-05-20T08:27:40.197Z,16.07
2023-05-20T08:30:11.971Z,16.42
2023-05-20T08:32:40.219Z,16.34
2023-05-20T08:35:09.808Z,16.74
2023-05-20T08:37:38.133Z,16.95
2023-05-20T08:40:07.031Z,16.93
2023-05-20T08:42:36.987Z,16.68
2023-05-20T08:45:07.173Z,16.94
2023-05-20T08:47:37.172Z,16.84
2023-05-20T08:50:05.566Z,16.70
2023-05-20T08:52:36.959Z,16.73
2023-05-20T08:55:09.756Z,16.51
2023-05-20T08:57:39.592Z,16.68
2023-05-20T09:00:14.445Z,16.90
2023-05-20T09:02:45.032Z,17.21
2023-05-20T09:05:13.586Z,17.27
2023-05-20T09:07:43.807Z,17.58
2023-05-20T09:10:12.699Z,17.53
2023-05-20T09:12:41.122Z,17.60
2023-05-20T09:15:10.577Z,17.08
2023-05-20T09:17:39.315Z,17.22
2023-05-20T09:20:12.159Z,17.23
2023-05-20T09:22:41.275Z,17.52
2023-05-20T09:25:12.702Z,17.48
2023-05-20T09:27:41.816Z,17.27
2023-05-20T09:30:12.927Z,17.48
2023-05-20T09:32:41.397Z,17.65
2023-05-20T09:35:15.892Z,18.19
2023-05-20T09:37:45.608Z,18.49
2023-05-20T09:40:17.749Z,18.54
2023-05-20T09:42:52.418Z,18.62
2023-05-20T09:45:22.385Z,17.57
2023-05-20T09:47:52.818Z,17.77
2023-05-20T09:50:23.836Z,17.73
2023-05-20T09:52:53.652Z,17.69
2023-05-20T09:55:24.795Z,17.42
2023-05-20T09:57:54.862Z,17.51
2023-05-20T10:00:23.294Z,17.52
2023-05-20T10:02:54.818Z,17.61
2023-05-20T10:05:30.317Z,17.23
2023-05-20T10:08:33.058Z,17.17
2023-05-20T10:11:22.129Z,17.10
2023-05-20T10:14:08.084Z,16.99
2023-05-20T10:16:44.550Z,17.11
2023-05-20T10:19:20.830Z,17.22
2023-05-20T10:22:00.425Z,17.30
2023-05-20T10:24:33.626Z,17.41
2023-05-20T10:27:05.166Z,17.46
2023-05-20T10:29:45.170Z,17.72
2023-05-20T10:32:13.805Z,17.82
2023-05-20T10:34:52.088Z,17.66
2023-05-20T10:37:29.067Z,18.02
2023-05-20T10:40:12.929Z,18.00
2023-05-20T10:42:45.299Z,18.17
2023-05-20T10:45:13.897Z,18.25
2023-05-20T10:47:57.432Z,18.23
2023-05-20T10:50:30.536Z,17.93
2023-05-20T10:53:10.966Z,17.68
2023-05-20T10:55:43.015Z,17.54
2023-05-20T10:58:11.781Z,17.49
2023-05-20T11:00:41.182Z,17.38
2023-05-20T11:03:09.550Z,17.34
2023-05-20T11:05:38.308Z,17.38
2023-05-20T11:08:24.117Z,17.42
2023-05-20T11:10:58.170Z,17.31
2023-05-20T11:13:26.892Z,17.21
2023-05-20T11:15:56.813Z,17.49
2023-05-20T11:18:25.295Z,17.84
2023-05-20T11:20:54.538Z,18.55
2023-05-20T11:23:24.791Z,18.70
2023-05-20T11:25:54.188Z,18.70
2023-05-20T11:28:22.998Z,18.44
2023-05-20T11:30:53.160Z,18.21
2023-05-20T11:33:22.134Z,18.21
2023-05-20T11:35:52.053Z,18.06
2023-05-20T11:38:21.857Z,18.12
2023-05-20T11:40:56.000Z,18.18
2023-05-20T11:43:26.148Z,18.37
2023-05-20T11:45:56.395Z,18.99
2023-05-20T11:48:25.310Z,19.78
2023-05-20T11:50:55.802Z,20.12
2023-05-20T11:53:25.500Z,19.56
2023-05-20T11:55:58.533Z,19.12
2023-05-20T11:58:31.381Z,19.98
2023-05-20T12:01:13.509Z,20.35
2023-05-20T12:03:49.192Z,20.61
2023-05-20T12:06:19.361Z,21.25
2023-05-20T12:08:51.356Z,20.61
2023-05-20T12:11:22.048Z,20.26
2023-05-20T12:13:50.568Z,19.72
2023-05-20T12:16:18.987Z,19.83
2023-05-20T12:18:47.207Z,19.26
2023-05-20T12:21:17.115Z,19.11
2023-05-20T12:23:45.805Z,19.68
2023-05-20T12:26:14.589Z,19.49
2023-05-20T12:28:44.427Z,20.34
2023-05-20T12:31:13.016Z,20.02
2023-05-20T12:33:43.658Z,20.50
2023-05-20T12:36:11.815Z,20.86
2023-05-20T12:38:40.123Z,20.80
2023-05-20T12:41:08.967Z,20.95
2023-05-20T12:43:37.751Z,21.40
2023-05-20T12:46:07.957Z,21.54
2023-05-20T12:48:37.167Z,21.22
2023-05-20T12:51:06.339Z,20.86
2023-05-20T12:53:34.485Z,21.36
2023-05-20T12:56:05.256Z,20.55
2023-05-20T12:58:37.498Z,20.66
2023-05-20T13:01:06.090Z,21.35
2023-05-20T13:03:36.130Z,22.11
2023-05-20T13:06:05.555Z,21.82
2023-05-20T13:08:33.790Z,21.87
2023-05-20T13:11:01.951Z,22.07
2023-05-20T13:13:30.163Z,22.06
2023-05-20T13:15:59.030Z,21.96
2023-05-20T13:18:27.500Z,21.41
2023-05-20T13:20:57.660Z,21.80
2023-05-20T13:23:25.986Z,22.05
2023-05-20T13:25:54.485Z,22.27
2023-05-20T13:28:22.690Z,21.62
2023-05-20T13:30:52.373Z,21.46
2023-05-20T13:33:23.334Z,21.78
2023-05-20T13:35:51.901Z,22.10
2023-05-20T13:38:21.417Z,22.73
2023-05-20T13:40:50.093Z,22.37
2023-05-20T13:43:18.954Z,21.98
2023-05-20T13:45:47.390Z,22.12
2023-05-20T13:48:15.971Z,22.49
2023-05-20T13:50:44.414Z,22.57
2023-05-20T13:53:14.032Z,22.94
2023-05-20T13:55:43.789Z,22.99
2023-05-20T13:58:13.294Z,22.62
2023-05-20T14:00:41.481Z,22.48
2023-05-20T14:03:10.814Z,22.12
2023-05-20T14:05:39.175Z,22.05
2023-05-20T14:08:07.495Z,22.22
2023-05-20T14:10:36.608Z,23.09
2023-05-20T14:13:09.038Z,23.16
2023-05-20T14:15:37.453Z,22.85
2023-05-20T14:18:06.027Z,22.84
2023-05-20T14:20:34.494Z,22.67
2023-05-20T14:23:03.047Z,23.04
2023-05-20T14:25:31.549Z,23.13
2023-05-20T14:28:01.800Z,23.75
2023-05-20T14:30:31.724Z,23.06
2023-05-20T14:33:02.532Z,23.63
2023-05-20T14:35:30.739Z,23.01
2023-05-20T14:37:58.849Z,23.28
2023-05-20T14:40:27.830Z,23.27
2023-05-20T14:42:56.109Z,23.29
2023-05-20T14:45:24.325Z,23.99
2023-05-20T14:47:54.280Z,23.94
2023-05-20T14:50:22.840Z,23.28
2023-05-20T14:52:51.326Z,23.82
2023-05-20T14:55:19.482Z,24.17
2023-05-20T14:57:48.459Z,23.61
2023-05-20T15:00:17.249Z,24.20
2023-05-20T15:02:45.381Z,24.59
2023-05-20T15:05:16.299Z,24.04
2023-05-20T15:07:47.250Z,23.68
2023-05-20T15:10:15.400Z,24.34
2023-05-20T15:12:44.058Z,24.47
2023-05-20T15:15:13.537Z,24.93
2023-05-20T15:17:42.065Z,24.78
2023-05-20T15:20:11.467Z,25.16
2023-05-20T15:22:41.606Z,24.30
2023-05-20T15:25:10.352Z,24.00
2023-05-20T15:27:38.511Z,24.47
2023-05-20T15:30:08.032Z,24.43
2023-05-20T15:32:36.184Z,24.69
2023-05-20T15:35:05.118Z,24.06
2023-05-20T15:37:33.675Z,24.44
2023-05-20T15:40:04.696Z,24.82
2023-05-20T15:42:33.067Z,25.39
2023-05-20T15:45:01.603Z,24.82
2023-05-20T15:47:30.023Z,24.50
2023-05-20T15:49:58.710Z,24.65
2023-05-20T15:52:27.162Z,24.59
2023-05-20T15:54:56.522Z,24.07
2023-05-20T15:57:26.250Z,24.76
2023-05-20T15:59:54.566Z,24.97
2023-05-20T16:02:23.664Z,24.40
2023-05-20T16:04:52.521Z,24.38
2023-05-20T16:07:21.648Z,23.93
2023-05-20T16:09:50.019Z,24.16
2023-05-20T16:12:18.579Z,23.94
2023-05-20T16:14:48.755Z,24.53
2023-05-20T16:17:19.317Z,25.06
2023-05-20T16:19:47.475Z,25.44
2023-05-20T16:22:16.624Z,25.73
2023-05-20T16:24:47.875Z,24.87
2023-05-20T16:27:16.298Z,24.05
2023-05-20T16:29:44.430Z,24.08
2023-05-20T16:32:14.724Z,24.22
2023-05-20T16:34:42.956Z,23.87
2023-05-20T16:37:11.482Z,23.29
2023-05-20T16:39:39.869Z,23.92
2023-05-20T16:42:09.479Z,24.34
2023-05-20T16:44:39.230Z,24.01
2023-05-20T16:47:08.257Z,23.88
2023-05-20T16:49:38.966Z,24.05
2023-05-20T16:52:08.121Z,23.93
2023-05-20T16:54:37.281Z,22.75
2023-05-20T16:57:06.708Z,22.50
2023-05-20T16:59:36.616Z,22.12
2023-05-20T17:02:04.939Z,22.31
2023-05-20T17:04:33.343Z,22.20
2023-05-20T17:07:03.530Z,22.63
2023-05-20T17:09:32.103Z,22.50
2023-05-20T17:12:00.485Z,22.56
2023-05-20T17:14:28.599Z,22.13
2023-05-20T17:16:56.791Z,22.03
2023-05-20T17:19:25.213Z,21.96
2023-05-20T17:21:53.509Z,22.11
2023-05-20T17:24:23.330Z,22.31
2023-05-20T17:26:51.436Z,22.12
2023-05-20T17:29:19.662Z,22.18
2023-05-20T17:31:48.390Z,21.34
2023-05-20T17:34:16.751Z,21.77
2023-05-20T17:36:45.191Z,21.89
2023-05-20T17:39:14.037Z,21.90
2023-05-20T17:41:44.138Z,21.55
2023-05-20T17:44:13.500Z,21.69
2023-05-20T17:46:42.006Z,21.99
2023-05-20T17:49:10.313Z,21.42
2023-05-20T17:51:42.391Z,21.24
2023-05-20T17:54:10.794Z,21.40
2023-05-20T17:56:38.842Z,20.94
2023-05-20T17:59:08.408Z,20.50
2023-05-20T18:01:38.021Z,20.88
2023-05-20T18:04:06.544Z,20.62
2023-05-20T18:06:35.610Z,21.17
2023-05-20T18:09:04.780Z,21.21
2023-05-20T18:11:33.617Z,20.55
2023-05-20T18:14:02.576Z,20.68
2023-05-20T18:16:33.895Z,20.56
2023-05-20T18:19:03.014Z,20.70
2023-05-20T18:21:31.298Z,20.00
2023-05-20T18:23:59.926Z,19.91
2023-05-20T18:26:28.808Z,20.39
2023-05-20T18:28:58.285Z,20.53
2023-05-20T18:31:27.246Z,20.52
2023-05-20T18:33:57.137Z,20.38
2023-05-20T18:36:27.559Z,20.36
2023-05-20T18:38:57.100Z,20.47
2023-05-20T18:41:32.377Z,19.86
2023-05-20T18:44:05.915Z,19.83
2023-05-20T18:46:34.614Z,19.40
2023-05-20T18:49:04.585Z,19.26
2023-05-20T18:51:33.837Z,19.22
2023-05-20T18:54:02.109Z,19.40
2023-05-20T18:56:32.529Z,19.50
2023-05-20T18:59:00.888Z,19.28
2023-05-20T19:01:29.773Z,19.02
2023-05-20T19:03:58.281Z,18.83
2023-05-20T19:06:28.519Z,18.70
2023-05-20T19:08:57.061Z,18.79
2023-05-20T19:11:25.164Z,18.43
2023-05-20T19:13:53.614Z,18.53
2023-05-20T19:16:22.423Z,18.50
2023-05-20T19:18:51.189Z,18.39
2023-05-20T19:21:19.623Z,18.32
2023-05-20T19:23:50.162Z,18.25
2023-05-20T19:26:19.050Z,18.27
2023-05-20T19:28:47.868Z,18.43
2023-05-20T19:31:21.283Z,18.43
2023-05-20T19:33:49.969Z,18.27
2023-05-20T19:36:18.428Z,18.38
2023-05-20T19:38:47.047Z,18.22
2023-05-20T19:41:16.802Z,18.23
2023-05-20T19:43:44.983Z,17.98
2023-05-20T19:46:14.535Z,17.96
2023-05-20T19:48:42.821Z,18.00
2023-05-20T19:51:11.878Z,17.66
2023-05-20T19:53:40.223Z,17.54
2023-05-20T19:56:09.378Z,17.64
2023-05-20T19:58:39.335Z,17.47
2023-05-20T20:01:07.910Z,17.62
2023-05-20T20:03:36.166Z,17.58
2023-05-20T20:06:04.698Z,17.55
2023-05-20T20:08:38.035Z,17.47
2023-05-20T20:11:07.692Z,17.39
2023-05-20T20:13:36.401Z,17.37
2023-05-20T20:16:07.753Z,17.21
2023-05-20T20:18:36.212Z,17.31
2023-05-20T20:21:06.677Z,17.21
2023-05-20T20:23:37.066Z,17.32
2023-05-20T20:26:06.487Z,17.26
2023-05-20T20:28:35.310Z,17.20
2023-05-20T20:31:06.319Z,17.24
2023-05-20T20:33:36.370Z,17.02
2023-05-20T20:36:04.975Z,17.03
2023-05-20T20:38:33.855Z,17.07
2023-05-20T20:41:04.053Z,16.69
2023-05-20T20:43:34.943Z,16.87
2023-05-20T20:46:03.752Z,16.84
2023-05-20T20:48:32.883Z,16.90
2023-05-20T20:51:05.519Z,16.98
2023-05-20T20:53:33.693Z,16.94
2023-05-20T20:56:02.414Z,16.93
2023-05-20T20:58:30.654Z,16.84
2023-05-20T21:00:58.790Z,16.71
2023-05-20T21:03:27.167Z,16.68
2023-05-20T21:05:55.386Z,16.73
2023-05-20T21:08:29.788Z,16.68
2023-05-20T21:10:59.607Z,16.57
2023-05-20T21:13:28.625Z,16.44
2023-05-20T21:15:57.141Z,16.54
2023-05-20T21:18:25.541Z,16.51
2023-05-20T21:20:56.090Z,16.33
2023-05-20T21:23:26.150Z,16.09
2023-05-20T21:25:55.254Z,16.31
2023-05-20T21:28:23.571Z,16.29
2023-05-20T21:30:52.296Z,16.11
2023-05-20T21:33:21.165Z,16.20
2023-05-20T21:35:49.459Z,16.12
2023-05-20T21:38:18.455Z,16.30
2023-05-20T21:40:48.098Z,16.10
2023-05-20T21:43:16.457Z,16.06
2023-05-20T21:45:46.007Z,15.90
2023-05-20T21:48:14.421Z,16.03
2023-05-20T21:50:42.783Z,15.92
2023-05-20T21:53:12.140Z,15.84
2023-05-20T21:55:41.339Z,15.74
2023-05-20T21:58:13.607Z,15.76
2023-05-20T22:00:43.069Z,15.70
2023-05-20T22:03:12.380Z,15.66
2023-05-20T22:05:41.210Z,15.87
2023-05-20T22:08:10.259Z,15.94
2023-05-20T22:10:39.231Z,15.71
2023-05-20T22:13:11.088Z,15.65
2023-05-20T22:15:41.214Z,15.66
2023-05-20T22:18:09.825Z,15.66
2023-05-20T22:20:38.683Z,15.75
2023-05-20T22:23:07.334Z,15.70
2023-05-20T22:25:36.626Z,15.55
2023-05-20T22:28:05.863Z,15.66
2023-05-20T22:30:34.391Z,15.77
2023-05-20T22:33:07.419Z,15.74
2023-05-20T22:35:36.352Z,15.63
2023-05-20T22:38:05.156Z,15.58
2023-05-20T22:40:33.656Z,15.60
2023-05-20T22:43:01.917Z,15.63
2023-05-20T22:45:31.696Z,15.45
2023-05-20T22:48:00.307Z,15.56
2023-05-20T22:50:30.294Z,15.54
2023-05-20T22:52:58.391Z,15.66
2023-05-20T22:55:27.087Z,15.55
2023-05-20T22:57:55.671Z,15.50
2023-05-20T23:00:24.141Z,15.58
2023-05-20T23:02:52.754Z,15.43
2023-05-20T23:05:21.320Z,15.42
2023-05-20T23:07:55.198Z,15.28
2023-05-20T23:10:24.486Z,15.35
2023-05-20T23:12:53.149Z,15.36
2023-05-20T23:15:26.749Z,15.45
2023-05-20T23:17:54.868Z,15.33
2023-05-20T23:20:23.410Z,15.43
2023-05-20T23:22:53.739Z,15.29
2023-05-20T23:25:22.235Z,15.28
2023-05-20T23:27:51.149Z,15.28
2023-05-20T23:30:21.162Z,15.24
2023-05-20T23:32:50.175Z,15.15
2023-05-20T23:35:18.907Z,15.29
2023-05-20T23:37:47.540Z,15.24
2023-05-20T23:40:17.730Z,15.40
2023-05-20T23:42:46.362Z,15.26
2023-05-20T23:45:14.741Z,15.30
2023-05-20T23:47:43.854Z,15.16
2023-05-20T23:50:13.458Z,15.21
2023-05-20T23:52:42.151Z,15.19
2023-05-20T23:55:14.970Z,15.17
2023-05-20T23:57:48.792Z,15.14
